sensor_id;sensor_type;location;lat;lon;timestamp;P1;durP1;ratioP1;P2;durP2;ratioP2
43449;SDS011;29041;42.266;23.110;2022-12-18T00:05:36;7.57;;;5.22;;
43449;SDS011;29041;42.266;23.110;2022-12-18T00:08:24;8.23;;;4.93;;
43449;SDS011;29041;42.266;23.110;2022-12-18T00:11:16;10.30;;;5.25;;
43449;SDS011;29041;42.266;23.110;2022-12-18T00:14:08;11.18;;;5.97;;
43449;SDS011;29041;42.266;23.110;2022-12-18T00:17:00;6.63;;;3.58;;
43449;SDS011;29041;42.266;23.110;2022-12-18T00:19:48;6.25;;;3.38;;
43449;SDS011;29041;42.266;23.110;2022-12-18T00:22:35;7.70;;;3.85;;
43449;SDS011;29041;42.266;23.110;2022-12-18T00:25:23;5.60;;;3.75;;
43449;SDS011;29041;42.266;23.110;2022-12-18T00:28:11;7.20;;;3.17;;
43449;SDS011;29041;42.266;23.110;2022-12-18T00:31:14;7.45;;;3.05;;
43449;SDS011;29041;42.266;23.110;2022-12-18T00:34:03;7.55;;;4.13;;
43449;SDS011;29041;42.266;23.110;2022-12-18T00:36:50;3.22;;;2.42;;
43449;SDS011;29041;42.266;23.110;2022-12-18T00:39:38;5.55;;;3.30;;
43449;SDS011;29041;42.266;23.110;2022-12-18T00:42:25;4.15;;;3.10;;
43449;SDS011;29041;42.266;23.110;2022-12-18T00:45:31;5.15;;;2.78;;
43449;SDS011;29041;42.266;23.110;2022-12-18T00:48:19;6.85;;;3.03;;
43449;SDS011;29041;42.266;23.110;2022-12-18T00:51:06;11.10;;;3.45;;
43449;SDS011;29041;42.266;23.110;2022-12-18T00:53:55;4.45;;;2.85;;
43449;SDS011;29041;42.266;23.110;2022-12-18T00:56:43;3.47;;;2.25;;
43449;SDS011;29041;42.266;23.110;2022-12-18T00:59:30;3.75;;;2.35;;
43449;SDS011;29041;42.266;23.110;2022-12-18T01:02:19;1.88;;;1.65;;
43449;SDS011;29041;42.266;23.110;2022-12-18T01:05:06;2.38;;;1.58;;
43449;SDS011;29041;42.266;23.110;2022-12-18T01:07:54;4.57;;;2.05;;
43449;SDS011;29041;42.266;23.110;2022-12-18T01:10:42;3.22;;;1.63;;
43449;SDS011;29041;42.266;23.110;2022-12-18T01:13:29;3.55;;;1.98;;
43449;SDS011;29041;42.266;23.110;2022-12-18T01:16:16;5.47;;;1.70;;
43449;SDS011;29041;42.266;23.110;2022-12-18T01:19:05;3.53;;;1.77;;
43449;SDS011;29041;42.266;23.110;2022-12-18T01:21:53;4.22;;;1.67;;
43449;SDS011;29041;42.266;23.110;2022-12-18T01:24:41;3.63;;;1.95;;
43449;SDS011;29041;42.266;23.110;2022-12-18T01:27:28;3.28;;;1.95;;
43449;SDS011;29041;42.266;23.110;2022-12-18T01:33:27;4.53;;;1.73;;
43449;SDS011;29041;42.266;23.110;2022-12-18T01:36:18;4.15;;;2.60;;
43449;SDS011;29041;42.266;23.110;2022-12-18T01:39:09;4.43;;;2.45;;
43449;SDS011;29041;42.266;23.110;2022-12-18T01:41:58;4.93;;;2.38;;
43449;SDS011;29041;42.266;23.110;2022-12-18T01:45:03;3.22;;;1.95;;
43449;SDS011;29041;42.266;23.110;2022-12-18T01:48:06;2.80;;;1.77;;
43449;SDS011;29041;42.266;23.110;2022-12-18T01:50:55;3.40;;;1.73;;
43449;SDS011;29041;42.266;23.110;2022-12-18T01:53:44;2.58;;;1.92;;
43449;SDS011;29041;42.266;23.110;2022-12-18T01:56:34;4.47;;;2.03;;
43449;SDS011;29041;42.266;23.110;2022-12-18T01:59:21;3.50;;;2.00;;
43449;SDS011;29041;42.266;23.110;2022-12-18T02:02:09;2.92;;;2.00;;
43449;SDS011;29041;42.266;23.110;2022-12-18T02:04:56;3.75;;;2.10;;
43449;SDS011;29041;42.266;23.110;2022-12-18T02:07:45;6.80;;;2.83;;
43449;SDS011;29041;42.266;23.110;2022-12-18T02:10:48;6.70;;;2.53;;
43449;SDS011;29041;42.266;23.110;2022-12-18T02:13:45;11.18;;;4.90;;
43449;SDS011;29041;42.266;23.110;2022-12-18T02:16:39;5.75;;;3.03;;
43449;SDS011;29041;42.266;23.110;2022-12-18T02:19:37;8.82;;;4.00;;
43449;SDS011;29041;42.266;23.110;2022-12-18T02:22:34;3.85;;;2.67;;
43449;SDS011;29041;42.266;23.110;2022-12-18T02:25:34;3.63;;;1.55;;
43449;SDS011;29041;42.266;23.110;2022-12-18T02:28:35;3.10;;;2.00;;
43449;SDS011;29041;42.266;23.110;2022-12-18T02:31:28;2.85;;;1.70;;
43449;SDS011;29041;42.266;23.110;2022-12-18T02:34:18;4.22;;;1.90;;
43449;SDS011;29041;42.266;23.110;2022-12-18T02:37:11;4.15;;;2.17;;
43449;SDS011;29041;42.266;23.110;2022-12-18T02:40:02;3.95;;;2.58;;
43449;SDS011;29041;42.266;23.110;2022-12-18T02:42:53;6.22;;;2.85;;
43449;SDS011;29041;42.266;23.110;2022-12-18T02:45:52;2.97;;;1.90;;
43449;SDS011;29041;42.266;23.110;2022-12-18T02:48:42;3.03;;;2.10;;
43449;SDS011;29041;42.266;23.110;2022-12-18T02:51:30;4.95;;;2.58;;
43449;SDS011;29041;42.266;23.110;2022-12-18T02:54:26;3.15;;;1.98;;
43449;SDS011;29041;42.266;23.110;2022-12-18T02:57:24;7.50;;;3.15;;
43449;SDS011;29041;42.266;23.110;2022-12-18T03:00:21;2.88;;;2.03;;
43449;SDS011;29041;42.266;23.110;2022-12-18T03:03:13;4.70;;;2.67;;
43449;SDS011;29041;42.266;23.110;2022-12-18T03:06:06;7.80;;;3.65;;
43449;SDS011;29041;42.266;23.110;2022-12-18T03:08:58;4.95;;;2.78;;
43449;SDS011;29041;42.266;23.110;2022-12-18T03:11:50;6.68;;;3.03;;
43449;SDS011;29041;42.266;23.110;2022-12-18T03:15:03;6.07;;;2.35;;
43449;SDS011;29041;42.266;23.110;2022-12-18T03:17:56;3.67;;;2.58;;
43449;SDS011;29041;42.266;23.110;2022-12-18T03:20:49;4.25;;;2.80;;
43449;SDS011;29041;42.266;23.110;2022-12-18T03:26:27;3.22;;;1.92;;
43449;SDS011;29041;42.266;23.110;2022-12-18T03:29:18;4.10;;;1.90;;
43449;SDS011;29041;42.266;23.110;2022-12-18T03:32:09;3.33;;;2.22;;
43449;SDS011;29041;42.266;23.110;2022-12-18T03:35:00;5.07;;;1.92;;
43449;SDS011;29041;42.266;23.110;2022-12-18T03:37:52;3.05;;;2.47;;
43449;SDS011;29041;42.266;23.110;2022-12-18T03:40:43;3.83;;;2.10;;
43449;SDS011;29041;42.266;23.110;2022-12-18T03:43:40;4.60;;;2.35;;
43449;SDS011;29041;42.266;23.110;2022-12-18T03:46:36;3.17;;;2.20;;
43449;SDS011;29041;42.266;23.110;2022-12-18T03:49:31;3.35;;;1.70;;
43449;SDS011;29041;42.266;23.110;2022-12-18T03:52:23;5.18;;;2.13;;
43449;SDS011;29041;42.266;23.110;2022-12-18T03:55:16;3.47;;;2.38;;
43449;SDS011;29041;42.266;23.110;2022-12-18T03:58:05;2.92;;;1.52;;
43449;SDS011;29041;42.266;23.110;2022-12-18T04:00:55;2.03;;;1.70;;
43449;SDS011;29041;42.266;23.110;2022-12-18T04:03:47;3.25;;;1.80;;
43449;SDS011;29041;42.266;23.110;2022-12-18T04:06:36;2.58;;;1.30;;
43449;SDS011;29041;42.266;23.110;2022-12-18T04:09:25;2.72;;;1.65;;
43449;SDS011;29041;42.266;23.110;2022-12-18T04:12:16;1.95;;;1.48;;
43449;SDS011;29041;42.266;23.110;2022-12-18T04:15:05;3.00;;;1.50;;
43449;SDS011;29041;42.266;23.110;2022-12-18T04:17:53;1.40;;;1.30;;
43449;SDS011;29041;42.266;23.110;2022-12-18T04:20:46;2.47;;;1.35;;
43449;SDS011;29041;42.266;23.110;2022-12-18T04:23:34;2.35;;;1.42;;
43449;SDS011;29041;42.266;23.110;2022-12-18T04:26:21;2.25;;;1.50;;
43449;SDS011;29041;42.266;23.110;2022-12-18T04:29:12;3.08;;;1.75;;
43449;SDS011;29041;42.266;23.110;2022-12-18T04:31:59;2.95;;;1.70;;
43449;SDS011;29041;42.266;23.110;2022-12-18T04:34:46;2.72;;;2.00;;
43449;SDS011;29041;42.266;23.110;2022-12-18T04:37:34;2.88;;;1.52;;
43449;SDS011;29041;42.266;23.110;2022-12-18T04:40:22;3.38;;;1.63;;
43449;SDS011;29041;42.266;23.110;2022-12-18T04:43:09;2.67;;;1.60;;
43449;SDS011;29041;42.266;23.110;2022-12-18T04:46:04;2.88;;;1.65;;
43449;SDS011;29041;42.266;23.110;2022-12-18T04:48:52;4.03;;;1.65;;
43449;SDS011;29041;42.266;23.110;2022-12-18T04:51:39;2.67;;;1.60;;
43449;SDS011;29041;42.266;23.110;2022-12-18T04:54:27;2.60;;;1.13;;
43449;SDS011;29041;42.266;23.110;2022-12-18T04:57:14;3.85;;;1.58;;
43449;SDS011;29041;42.266;23.110;2022-12-18T05:00:03;3.20;;;1.75;;
43449;SDS011;29041;42.266;23.110;2022-12-18T05:02:54;3.67;;;1.70;;
43449;SDS011;29041;42.266;23.110;2022-12-18T05:05:41;3.38;;;1.60;;
43449;SDS011;29041;42.266;23.110;2022-12-18T05:08:28;2.17;;;1.42;;
43449;SDS011;29041;42.266;23.110;2022-12-18T05:11:17;3.00;;;1.60;;
43449;SDS011;29041;42.266;23.110;2022-12-18T05:14:04;2.05;;;1.45;;
43449;SDS011;29041;42.266;23.110;2022-12-18T05:16:52;2.42;;;1.50;;
43449;SDS011;29041;42.266;23.110;2022-12-18T05:19:40;2.35;;;1.73;;
43449;SDS011;29041;42.266;23.110;2022-12-18T05:22:30;3.80;;;1.30;;
43449;SDS011;29041;42.266;23.110;2022-12-18T05:25:18;2.83;;;1.85;;
43449;SDS011;29041;42.266;23.110;2022-12-18T05:28:05;3.50;;;2.63;;
43449;SDS011;29041;42.266;23.110;2022-12-18T05:30:59;3.92;;;2.03;;
43449;SDS011;29041;42.266;23.110;2022-12-18T05:33:47;3.47;;;1.50;;
43449;SDS011;29041;42.266;23.110;2022-12-18T05:36:36;3.00;;;2.28;;
43449;SDS011;29041;42.266;23.110;2022-12-18T05:39:24;2.08;;;1.20;;
43449;SDS011;29041;42.266;23.110;2022-12-18T05:42:11;2.70;;;1.58;;
43449;SDS011;29041;42.266;23.110;2022-12-18T05:44:58;3.83;;;1.80;;
43449;SDS011;29041;42.266;23.110;2022-12-18T05:47:46;2.50;;;1.33;;
43449;SDS011;29041;42.266;23.110;2022-12-18T05:50:33;3.30;;;1.85;;
43449;SDS011;29041;42.266;23.110;2022-12-18T05:53:23;3.22;;;1.95;;
43449;SDS011;29041;42.266;23.110;2022-12-18T05:56:11;4.00;;;2.53;;
43449;SDS011;29041;42.266;23.110;2022-12-18T05:59:00;2.95;;;1.88;;
43449;SDS011;29041;42.266;23.110;2022-12-18T06:02:02;2.83;;;1.95;;
43449;SDS011;29041;42.266;23.110;2022-12-18T06:04:50;6.40;;;2.05;;
43449;SDS011;29041;42.266;23.110;2022-12-18T06:07:39;7.95;;;3.90;;
43449;SDS011;29041;42.266;23.110;2022-12-18T06:10:30;2.70;;;1.95;;
43449;SDS011;29041;42.266;23.110;2022-12-18T06:13:17;1.42;;;1.33;;
43449;SDS011;29041;42.266;23.110;2022-12-18T06:16:05;1.88;;;1.25;;
43449;SDS011;29041;42.266;23.110;2022-12-18T06:18:53;6.15;;;2.95;;
43449;SDS011;29041;42.266;23.110;2022-12-18T06:21:42;3.38;;;1.92;;
43449;SDS011;29041;42.266;23.110;2022-12-18T06:24:29;4.38;;;2.42;;
43449;SDS011;29041;42.266;23.110;2022-12-18T06:27:18;6.25;;;2.60;;
43449;SDS011;29041;42.266;23.110;2022-12-18T06:30:06;2.75;;;2.03;;
43449;SDS011;29041;42.266;23.110;2022-12-18T06:32:54;3.55;;;2.50;;
43449;SDS011;29041;42.266;23.110;2022-12-18T06:35:42;6.45;;;2.40;;
43449;SDS011;29041;42.266;23.110;2022-12-18T06:38:29;4.25;;;2.92;;
43449;SDS011;29041;42.266;23.110;2022-12-18T06:41:18;2.90;;;1.92;;
43449;SDS011;29041;42.266;23.110;2022-12-18T06:44:10;4.40;;;2.65;;
43449;SDS011;29041;42.266;23.110;2022-12-18T06:47:05;4.82;;;3.35;;
43449;SDS011;29041;42.266;23.110;2022-12-18T06:49:52;2.13;;;1.35;;
43449;SDS011;29041;42.266;23.110;2022-12-18T06:56:02;9.02;;;3.70;;
43449;SDS011;29041;42.266;23.110;2022-12-18T06:58:50;6.05;;;3.25;;
43449;SDS011;29041;42.266;23.110;2022-12-18T07:01:44;6.18;;;2.75;;
43449;SDS011;29041;42.266;23.110;2022-12-18T07:04:32;10.32;;;4.28;;
43449;SDS011;29041;42.266;23.110;2022-12-18T07:07:19;4.55;;;2.53;;
43449;SDS011;29041;42.266;23.110;2022-12-18T07:10:06;3.65;;;2.47;;
43449;SDS011;29041;42.266;23.110;2022-12-18T07:12:53;8.88;;;3.70;;
43449;SDS011;29041;42.266;23.110;2022-12-18T07:15:42;5.47;;;2.90;;
43449;SDS011;29041;42.266;23.110;2022-12-18T07:18:31;2.95;;;2.22;;
43449;SDS011;29041;42.266;23.110;2022-12-18T07:21:18;7.85;;;3.70;;
43449;SDS011;29041;42.266;23.110;2022-12-18T07:24:06;6.10;;;3.03;;
43449;SDS011;29041;42.266;23.110;2022-12-18T07:26:54;5.55;;;3.22;;
43449;SDS011;29041;42.266;23.110;2022-12-18T07:29:41;5.90;;;2.47;;
43449;SDS011;29041;42.266;23.110;2022-12-18T07:32:29;6.15;;;2.92;;
43449;SDS011;29041;42.266;23.110;2022-12-18T07:35:19;5.03;;;2.65;;
43449;SDS011;29041;42.266;23.110;2022-12-18T07:38:06;4.90;;;3.28;;
43449;SDS011;29041;42.266;23.110;2022-12-18T07:40:54;4.10;;;3.05;;
43449;SDS011;29041;42.266;23.110;2022-12-18T07:43:41;9.90;;;4.30;;
43449;SDS011;29041;42.266;23.110;2022-12-18T07:46:28;4.65;;;2.83;;
43449;SDS011;29041;42.266;23.110;2022-12-18T07:49:16;6.63;;;3.95;;
43449;SDS011;29041;42.266;23.110;2022-12-18T07:52:05;7.45;;;3.30;;
43449;SDS011;29041;42.266;23.110;2022-12-18T07:54:52;21.17;;;8.43;;
43449;SDS011;29041;42.266;23.110;2022-12-18T07:57:40;6.97;;;4.30;;
43449;SDS011;29041;42.266;23.110;2022-12-18T08:00:27;7.18;;;4.43;;
43449;SDS011;29041;42.266;23.110;2022-12-18T08:03:14;7.85;;;5.35;;
43449;SDS011;29041;42.266;23.110;2022-12-18T08:06:02;7.00;;;4.38;;
43449;SDS011;29041;42.266;23.110;2022-12-18T08:08:53;6.80;;;4.38;;
43449;SDS011;29041;42.266;23.110;2022-12-18T08:11:45;8.52;;;4.93;;
43449;SDS011;29041;42.266;23.110;2022-12-18T08:14:34;6.22;;;3.83;;
43449;SDS011;29041;42.266;23.110;2022-12-18T08:17:21;10.07;;;4.55;;
43449;SDS011;29041;42.266;23.110;2022-12-18T08:20:09;24.42;;;12.02;;
43449;SDS011;29041;42.266;23.110;2022-12-18T08:22:57;32.83;;;16.20;;
43449;SDS011;29041;42.266;23.110;2022-12-18T08:25:45;12.38;;;7.53;;
43449;SDS011;29041;42.266;23.110;2022-12-18T08:28:33;11.00;;;6.20;;
43449;SDS011;29041;42.266;23.110;2022-12-18T08:31:21;12.50;;;6.72;;
43449;SDS011;29041;42.266;23.110;2022-12-18T08:34:08;11.95;;;6.70;;
43449;SDS011;29041;42.266;23.110;2022-12-18T08:36:56;8.70;;;7.10;;
43449;SDS011;29041;42.266;23.110;2022-12-18T08:39:43;7.43;;;5.22;;
43449;SDS011;29041;42.266;23.110;2022-12-18T08:47:47;5.13;;;3.05;;
43449;SDS011;29041;42.266;23.110;2022-12-18T08:50:53;4.05;;;3.05;;
43449;SDS011;29041;42.266;23.110;2022-12-18T08:53:41;8.18;;;4.38;;
43449;SDS011;29041;42.266;23.110;2022-12-18T08:56:29;6.63;;;3.45;;
43449;SDS011;29041;42.266;23.110;2022-12-18T08:59:17;5.93;;;3.72;;
43449;SDS011;29041;42.266;23.110;2022-12-18T09:02:05;8.18;;;4.28;;
43449;SDS011;29041;42.266;23.110;2022-12-18T09:04:54;9.35;;;4.28;;
43449;SDS011;29041;42.266;23.110;2022-12-18T09:07:41;5.68;;;2.90;;
43449;SDS011;29041;42.266;23.110;2022-12-18T09:10:29;6.22;;;4.00;;
43449;SDS011;29041;42.266;23.110;2022-12-18T09:13:16;5.40;;;4.03;;
43449;SDS011;29041;42.266;23.110;2022-12-18T09:16:04;5.28;;;3.38;;
43449;SDS011;29041;42.266;23.110;2022-12-18T09:18:52;6.28;;;3.47;;
43449;SDS011;29041;42.266;23.110;2022-12-18T09:21:46;10.48;;;4.95;;
43449;SDS011;29041;42.266;23.110;2022-12-18T09:24:35;10.07;;;3.15;;
43449;SDS011;29041;42.266;23.110;2022-12-18T09:27:22;7.95;;;5.15;;
43449;SDS011;29041;42.266;23.110;2022-12-18T09:30:10;7.15;;;3.47;;
43449;SDS011;29041;42.266;23.110;2022-12-18T09:32:57;6.82;;;3.35;;
43449;SDS011;29041;42.266;23.110;2022-12-18T09:35:45;7.35;;;3.63;;
43449;SDS011;29041;42.266;23.110;2022-12-18T09:38:34;7.03;;;4.07;;
43449;SDS011;29041;42.266;23.110;2022-12-18T09:41:33;7.43;;;4.00;;
43449;SDS011;29041;42.266;23.110;2022-12-18T09:47:16;7.97;;;3.72;;
43449;SDS011;29041;42.266;23.110;2022-12-18T09:50:15;7.57;;;4.57;;
43449;SDS011;29041;42.266;23.110;2022-12-18T09:53:13;8.45;;;3.83;;
43449;SDS011;29041;42.266;23.110;2022-12-18T09:56:05;6.13;;;3.85;;
43449;SDS011;29041;42.266;23.110;2022-12-18T09:58:59;7.30;;;3.88;;
43449;SDS011;29041;42.266;23.110;2022-12-18T10:01:47;7.80;;;3.92;;
43449;SDS011;29041;42.266;23.110;2022-12-18T10:04:35;7.93;;;4.72;;
43449;SDS011;29041;42.266;23.110;2022-12-18T10:07:23;15.57;;;7.13;;
43449;SDS011;29041;42.266;23.110;2022-12-18T10:10:23;8.63;;;3.97;;
43449;SDS011;29041;42.266;23.110;2022-12-18T10:13:22;8.48;;;4.57;;
43449;SDS011;29041;42.266;23.110;2022-12-18T10:16:13;10.85;;;5.28;;
43449;SDS011;29041;42.266;23.110;2022-12-18T10:19:11;12.93;;;6.75;;
43449;SDS011;29041;42.266;23.110;2022-12-18T10:22:13;9.05;;;5.28;;
43449;SDS011;29041;42.266;23.110;2022-12-18T10:25:13;8.82;;;4.85;;
43449;SDS011;29041;42.266;23.110;2022-12-18T10:28:08;8.57;;;4.18;;
43449;SDS011;29041;42.266;23.110;2022-12-18T10:31:00;10.23;;;4.85;;
43449;SDS011;29041;42.266;23.110;2022-12-18T10:33:47;8.27;;;4.25;;
43449;SDS011;29041;42.266;23.110;2022-12-18T10:36:34;8.57;;;4.65;;
43449;SDS011;29041;42.266;23.110;2022-12-18T10:39:22;7.22;;;3.92;;
43449;SDS011;29041;42.266;23.110;2022-12-18T10:42:14;14.02;;;6.15;;
43449;SDS011;29041;42.266;23.110;2022-12-18T10:45:07;10.60;;;5.43;;
43449;SDS011;29041;42.266;23.110;2022-12-18T10:47:58;5.30;;;4.15;;
43449;SDS011;29041;42.266;23.110;2022-12-18T10:50:46;10.55;;;5.57;;
43449;SDS011;29041;42.266;23.110;2022-12-18T10:53:38;8.60;;;4.05;;
43449;SDS011;29041;42.266;23.110;2022-12-18T10:56:28;13.00;;;5.53;;
43449;SDS011;29041;42.266;23.110;2022-12-18T10:59:18;13.00;;;7.45;;
43449;SDS011;29041;42.266;23.110;2022-12-18T11:02:07;13.25;;;6.20;;
43449;SDS011;29041;42.266;23.110;2022-12-18T11:05:27;10.43;;;5.95;;
43449;SDS011;29041;42.266;23.110;2022-12-18T11:08:19;8.10;;;4.18;;
43449;SDS011;29041;42.266;23.110;2022-12-18T11:11:15;9.10;;;4.05;;
43449;SDS011;29041;42.266;23.110;2022-12-18T11:14:15;8.85;;;4.35;;
43449;SDS011;29041;42.266;23.110;2022-12-18T11:17:17;9.85;;;4.60;;
43449;SDS011;29041;42.266;23.110;2022-12-18T11:20:07;7.22;;;4.07;;
43449;SDS011;29041;42.266;23.110;2022-12-18T11:23:11;9.45;;;5.45;;
43449;SDS011;29041;42.266;23.110;2022-12-18T11:26:01;8.90;;;4.20;;
43449;SDS011;29041;42.266;23.110;2022-12-18T11:28:51;9.40;;;4.80;;
43449;SDS011;29041;42.266;23.110;2022-12-18T11:31:39;10.32;;;4.90;;
43449;SDS011;29041;42.266;23.110;2022-12-18T11:34:27;8.10;;;3.72;;
43449;SDS011;29041;42.266;23.110;2022-12-18T11:37:17;9.68;;;4.45;;
43449;SDS011;29041;42.266;23.110;2022-12-18T11:40:09;6.82;;;3.70;;
43449;SDS011;29041;42.266;23.110;2022-12-18T11:43:02;8.27;;;4.63;;
43449;SDS011;29041;42.266;23.110;2022-12-18T11:45:56;10.77;;;5.65;;
43449;SDS011;29041;42.266;23.110;2022-12-18T11:48:49;8.40;;;5.25;;
43449;SDS011;29041;42.266;23.110;2022-12-18T11:51:44;8.10;;;4.15;;
43449;SDS011;29041;42.266;23.110;2022-12-18T11:54:36;9.85;;;5.68;;
43449;SDS011;29041;42.266;23.110;2022-12-18T11:57:27;8.68;;;4.28;;
43449;SDS011;29041;42.266;23.110;2022-12-18T12:00:22;6.10;;;4.57;;
43449;SDS011;29041;42.266;23.110;2022-12-18T12:03:21;7.80;;;4.07;;
43449;SDS011;29041;42.266;23.110;2022-12-18T12:06:18;10.10;;;5.03;;
43449;SDS011;29041;42.266;23.110;2022-12-18T12:09:13;10.77;;;5.70;;
43449;SDS011;29041;42.266;23.110;2022-12-18T12:12:14;9.25;;;4.72;;
43449;SDS011;29041;42.266;23.110;2022-12-18T12:15:16;7.90;;;4.07;;
43449;SDS011;29041;42.266;23.110;2022-12-18T12:18:13;9.70;;;4.88;;
43449;SDS011;29041;42.266;23.110;2022-12-18T12:21:10;8.90;;;5.18;;
43449;SDS011;29041;42.266;23.110;2022-12-18T12:24:21;13.55;;;5.93;;
43449;SDS011;29041;42.266;23.110;2022-12-18T12:27:19;13.43;;;6.05;;
43449;SDS011;29041;42.266;23.110;2022-12-18T12:30:18;11.88;;;5.68;;
43449;SDS011;29041;42.266;23.110;2022-12-18T12:33:13;7.72;;;3.85;;
43449;SDS011;29041;42.266;23.110;2022-12-18T12:36:09;10.25;;;5.28;;
43449;SDS011;29041;42.266;23.110;2022-12-18T12:39:07;10.52;;;6.20;;
43449;SDS011;29041;42.266;23.110;2022-12-18T12:41:58;7.15;;;3.90;;
43449;SDS011;29041;42.266;23.110;2022-12-18T12:45:05;10.23;;;5.30;;
43449;SDS011;29041;42.266;23.110;2022-12-18T12:47:54;11.40;;;5.22;;
43449;SDS011;29041;42.266;23.110;2022-12-18T12:50:44;9.48;;;4.78;;
43449;SDS011;29041;42.266;23.110;2022-12-18T12:53:34;9.18;;;4.50;;
43449;SDS011;29041;42.266;23.110;2022-12-18T12:56:24;8.80;;;4.70;;
43449;SDS011;29041;42.266;23.110;2022-12-18T12:59:18;9.13;;;4.70;;
43449;SDS011;29041;42.266;23.110;2022-12-18T13:02:14;9.52;;;4.43;;
43449;SDS011;29041;42.266;23.110;2022-12-18T13:05:14;8.07;;;4.55;;
43449;SDS011;29041;42.266;23.110;2022-12-18T13:08:09;10.05;;;4.57;;
43449;SDS011;29041;42.266;23.110;2022-12-18T13:10:59;8.63;;;4.90;;
43449;SDS011;29041;42.266;23.110;2022-12-18T13:14:01;8.75;;;4.10;;
43449;SDS011;29041;42.266;23.110;2022-12-18T13:16:49;12.82;;;4.60;;
43449;SDS011;29041;42.266;23.110;2022-12-18T13:19:36;10.35;;;4.55;;
43449;SDS011;29041;42.266;23.110;2022-12-18T13:22:28;16.35;;;8.48;;
43449;SDS011;29041;42.266;23.110;2022-12-18T13:25:33;11.05;;;4.68;;
43449;SDS011;29041;42.266;23.110;2022-12-18T13:28:22;10.98;;;6.20;;
43449;SDS011;29041;42.266;23.110;2022-12-18T13:31:11;10.10;;;5.35;;
43449;SDS011;29041;42.266;23.110;2022-12-18T13:34:09;9.75;;;5.35;;
43449;SDS011;29041;42.266;23.110;2022-12-18T13:43:42;8.38;;;4.78;;
43449;SDS011;29041;42.266;23.110;2022-12-18T13:46:30;7.43;;;3.45;;
43449;SDS011;29041;42.266;23.110;2022-12-18T13:49:31;8.40;;;4.57;;
43449;SDS011;29041;42.266;23.110;2022-12-18T13:52:25;8.55;;;4.63;;
43449;SDS011;29041;42.266;23.110;2022-12-18T13:55:16;11.13;;;5.53;;
43449;SDS011;29041;42.266;23.110;2022-12-18T13:58:06;10.45;;;4.45;;
43449;SDS011;29041;42.266;23.110;2022-12-18T14:00:58;10.40;;;4.88;;
43449;SDS011;29041;42.266;23.110;2022-12-18T14:03:47;9.18;;;5.25;;
43449;SDS011;29041;42.266;23.110;2022-12-18T14:06:34;10.95;;;4.85;;
43449;SDS011;29041;42.266;23.110;2022-12-18T14:09:23;7.88;;;4.32;;
43449;SDS011;29041;42.266;23.110;2022-12-18T14:12:16;9.95;;;4.70;;
43449;SDS011;29041;42.266;23.110;2022-12-18T14:15:26;10.98;;;4.72;;
43449;SDS011;29041;42.266;23.110;2022-12-18T14:18:19;13.05;;;6.03;;
43449;SDS011;29041;42.266;23.110;2022-12-18T14:24:26;9.43;;;4.65;;
43449;SDS011;29041;42.266;23.110;2022-12-18T14:27:22;9.52;;;4.72;;
43449;SDS011;29041;42.266;23.110;2022-12-18T14:30:25;13.13;;;6.15;;
43449;SDS011;29041;42.266;23.110;2022-12-18T14:33:15;11.57;;;4.82;;
43449;SDS011;29041;42.266;23.110;2022-12-18T14:36:04;9.18;;;5.28;;
43449;SDS011;29041;42.266;23.110;2022-12-18T14:38:53;11.18;;;4.32;;
43449;SDS011;29041;42.266;23.110;2022-12-18T14:41:42;10.35;;;4.05;;
43449;SDS011;29041;42.266;23.110;2022-12-18T14:44:32;13.07;;;5.13;;
43449;SDS011;29041;42.266;23.110;2022-12-18T14:47:19;7.32;;;4.22;;
43449;SDS011;29041;42.266;23.110;2022-12-18T14:50:11;7.88;;;4.72;;
43449;SDS011;29041;42.266;23.110;2022-12-18T14:53:00;11.18;;;5.32;;
43449;SDS011;29041;42.266;23.110;2022-12-18T14:55:47;11.07;;;5.03;;
43449;SDS011;29041;42.266;23.110;2022-12-18T14:58:35;11.80;;;6.00;;
43449;SDS011;29041;42.266;23.110;2022-12-18T15:01:28;14.73;;;5.00;;
43449;SDS011;29041;42.266;23.110;2022-12-18T15:04:24;24.20;;;8.55;;
43449;SDS011;29041;42.266;23.110;2022-12-18T15:07:14;11.38;;;7.43;;
43449;SDS011;29041;42.266;23.110;2022-12-18T15:10:10;22.90;;;9.82;;
43449;SDS011;29041;42.266;23.110;2022-12-18T15:13:07;19.65;;;8.52;;
43449;SDS011;29041;42.266;23.110;2022-12-18T15:15:56;13.10;;;6.55;;
43449;SDS011;29041;42.266;23.110;2022-12-18T15:18:51;21.88;;;8.60;;
43449;SDS011;29041;42.266;23.110;2022-12-18T15:21:39;17.45;;;7.60;;
43449;SDS011;29041;42.266;23.110;2022-12-18T15:24:30;18.77;;;9.05;;
43449;SDS011;29041;42.266;23.110;2022-12-18T15:27:23;17.65;;;9.18;;
43449;SDS011;29041;42.266;23.110;2022-12-18T15:30:22;18.58;;;6.45;;
43449;SDS011;29041;42.266;23.110;2022-12-18T15:33:17;20.20;;;8.32;;
43449;SDS011;29041;42.266;23.110;2022-12-18T15:36:13;16.33;;;8.35;;
43449;SDS011;29041;42.266;23.110;2022-12-18T15:39:02;13.75;;;6.53;;
43449;SDS011;29041;42.266;23.110;2022-12-18T15:41:50;22.30;;;10.02;;
43449;SDS011;29041;42.266;23.110;2022-12-18T15:44:54;13.27;;;4.30;;
43449;SDS011;29041;42.266;23.110;2022-12-18T15:47:43;12.40;;;5.82;;
43449;SDS011;29041;42.266;23.110;2022-12-18T15:50:30;16.33;;;7.88;;
43449;SDS011;29041;42.266;23.110;2022-12-18T15:53:19;16.17;;;7.78;;
43449;SDS011;29041;42.266;23.110;2022-12-18T15:56:08;15.70;;;6.80;;
43449;SDS011;29041;42.266;23.110;2022-12-18T15:59:14;11.38;;;6.15;;
43449;SDS011;29041;42.266;23.110;2022-12-18T16:02:07;9.02;;;6.10;;
43449;SDS011;29041;42.266;23.110;2022-12-18T16:05:03;14.13;;;7.22;;
43449;SDS011;29041;42.266;23.110;2022-12-18T16:07:56;10.82;;;5.68;;
43449;SDS011;29041;42.266;23.110;2022-12-18T16:10:45;16.80;;;7.22;;
43449;SDS011;29041;42.266;23.110;2022-12-18T16:13:32;22.55;;;10.45;;
43449;SDS011;29041;42.266;23.110;2022-12-18T16:16:19;11.45;;;5.72;;
43449;SDS011;29041;42.266;23.110;2022-12-18T16:19:06;11.40;;;6.80;;
43449;SDS011;29041;42.266;23.110;2022-12-18T16:21:54;13.23;;;6.43;;
43449;SDS011;29041;42.266;23.110;2022-12-18T16:24:42;13.80;;;6.85;;
43449;SDS011;29041;42.266;23.110;2022-12-18T16:27:31;14.80;;;7.20;;
43449;SDS011;29041;42.266;23.110;2022-12-18T16:30:19;13.48;;;6.15;;
43449;SDS011;29041;42.266;23.110;2022-12-18T16:33:08;13.20;;;6.60;;
43449;SDS011;29041;42.266;23.110;2022-12-18T16:35:56;12.75;;;6.13;;
43449;SDS011;29041;42.266;23.110;2022-12-18T16:38:44;10.27;;;6.38;;
43449;SDS011;29041;42.266;23.110;2022-12-18T16:41:31;21.40;;;8.32;;
43449;SDS011;29041;42.266;23.110;2022-12-18T16:44:20;12.90;;;6.20;;
43449;SDS011;29041;42.266;23.110;2022-12-18T16:47:07;23.42;;;7.35;;
43449;SDS011;29041;42.266;23.110;2022-12-18T16:49:54;16.95;;;6.82;;
43449;SDS011;29041;42.266;23.110;2022-12-18T16:52:41;15.63;;;7.03;;
43449;SDS011;29041;42.266;23.110;2022-12-18T16:55:28;11.98;;;5.22;;
43449;SDS011;29041;42.266;23.110;2022-12-18T16:58:16;14.30;;;6.68;;
43449;SDS011;29041;42.266;23.110;2022-12-18T17:01:07;14.35;;;7.15;;
43449;SDS011;29041;42.266;23.110;2022-12-18T17:03:56;11.98;;;5.75;;
43449;SDS011;29041;42.266;23.110;2022-12-18T17:06:44;10.10;;;5.18;;
43449;SDS011;29041;42.266;23.110;2022-12-18T17:09:36;10.75;;;6.13;;
43449;SDS011;29041;42.266;23.110;2022-12-18T17:12:26;8.90;;;4.55;;
43449;SDS011;29041;42.266;23.110;2022-12-18T17:15:13;14.05;;;7.32;;
43449;SDS011;29041;42.266;23.110;2022-12-18T17:18:02;11.88;;;5.57;;
43449;SDS011;29041;42.266;23.110;2022-12-18T17:20:50;11.98;;;5.47;;
43449;SDS011;29041;42.266;23.110;2022-12-18T17:23:37;9.18;;;5.50;;